createdAt,value
2022-11-26T00:01:30.047Z,95.47
2022-11-26T00:06:35.003Z,94.84
2022-11-26T00:11:36.411Z,95.03
2022-11-26T00:16:37.838Z,95.15
2022-11-26T00:21:41.114Z,95.06
2022-11-26T00:26:42.492Z,94.81
2022-11-26T00:31:43.878Z,95.33
2022-11-26T00:36:45.542Z,95.49
2022-11-26T00:41:50.766Z,95.55
2022-11-26T00:46:52.798Z,95.29
2022-11-26T00:51:54.294Z,95.36
2022-11-26T00:56:55.747Z,95.70
2022-11-26T01:01:57.151Z,95.32
2022-11-26T01:06:58.563Z,95.67
2022-11-26T01:11:59.975Z,95.69
2022-11-26T01:17:01.434Z,95.77
2022-11-26T01:22:02.951Z,95.39
2022-11-26T01:27:08.855Z,94.68
2022-11-26T01:32:11.281Z,94.91
2022-11-26T01:37:14.221Z,95.02
2022-11-26T01:42:41.719Z,95.41
2022-11-26T01:47:44.159Z,95.76
2022-11-26T01:52:45.851Z,95.45
2022-11-26T01:57:48.647Z,95.54
2022-11-26T02:02:50.123Z,95.34
2022-11-26T02:07:53.159Z,95.19
2022-11-26T02:12:54.522Z,96.07
2022-11-26T02:18:02.057Z,94.77
2022-11-26T02:23:25.779Z,95.36
2022-11-26T02:29:00.252Z,95.37
2022-11-26T02:34:21.383Z,95.56
2022-11-26T02:39:26.231Z,95.30
2022-11-26T02:44:46.715Z,95.62
2022-11-26T02:49:51.351Z,95.02
2022-11-26T02:54:52.966Z,95.51
2022-11-26T02:59:54.514Z,95.86
2022-11-26T03:04:59.691Z,95.54
2022-11-26T03:10:02.060Z,95.68
2022-11-26T03:15:03.684Z,95.86
2022-11-26T03:20:08.185Z,96.10
2022-11-26T03:25:10.254Z,96.27
2022-11-26T03:30:12.058Z,95.72
2022-11-26T03:35:13.619Z,96.29
2022-11-26T03:40:16.663Z,96.11
2022-11-26T03:45:18.030Z,96.29
2022-11-26T03:50:19.407Z,96.14
2022-11-26T03:55:21.762Z,96.15
2022-11-26T04:00:23.259Z,96.61
2022-11-26T04:05:24.640Z,96.25
2022-11-26T04:10:26.104Z,96.47
2022-11-26T04:15:27.777Z,96.34
2022-11-26T04:20:29.194Z,96.14
2022-11-26T04:25:30.559Z,96.38
2022-11-26T04:30:31.930Z,96.23
2022-11-26T04:35:33.415Z,96.50
2022-11-26T04:40:34.835Z,96.73
2022-11-26T04:45:36.245Z,96.60
2022-11-26T04:50:37.651Z,97.18
2022-11-26T04:55:39.018Z,96.60
2022-11-26T05:00:40.418Z,96.75
2022-11-26T05:05:41.942Z,96.45
2022-11-26T05:10:43.379Z,96.22
2022-11-26T05:15:44.742Z,96.34
2022-11-26T05:20:46.137Z,96.60
2022-11-26T05:25:47.866Z,96.32
2022-11-26T05:30:49.386Z,96.60
2022-11-26T05:35:50.776Z,97.07
2022-11-26T05:40:52.139Z,96.72
2022-11-26T05:45:53.660Z,97.23
2022-11-26T05:50:59.210Z,96.80
2022-11-26T05:56:00.659Z,96.72
2022-11-26T06:01:07.721Z,96.81
2022-11-26T06:06:09.263Z,96.58
2022-11-26T06:11:12.850Z,96.66
2022-11-26T06:16:14.317Z,96.52
2022-11-26T06:21:15.770Z,96.70
2022-11-26T06:26:17.143Z,96.71
2022-11-26T06:31:18.779Z,97.01
2022-11-26T06:36:20.407Z,97.09
2022-11-26T06:41:21.839Z,97.35
2022-11-26T06:46:23.299Z,96.89
2022-11-26T06:51:27.578Z,97.15
2022-11-26T06:56:29.252Z,97.39
2022-11-26T07:01:30.976Z,97.68
2022-11-26T07:06:33.085Z,97.24
2022-11-26T07:11:35.738Z,97.06
2022-11-26T07:16:37.201Z,97.17
2022-11-26T07:21:38.608Z,97.27
2022-11-26T07:26:39.992Z,97.64
2022-11-26T07:31:41.588Z,97.55
2022-11-26T07:36:43.451Z,97.27
2022-11-26T07:41:44.859Z,97.28
2022-11-26T07:46:46.308Z,97.14
2022-11-26T07:51:47.723Z,97.29
2022-11-26T07:56:49.106Z,96.97
2022-11-26T08:01:50.576Z,97.29
2022-11-26T08:06:52.106Z,97.38
2022-11-26T08:11:53.485Z,97.08
2022-11-26T08:16:54.939Z,97.60
2022-11-26T08:21:56.331Z,97.37
2022-11-26T08:27:00.556Z,97.69
2022-11-26T08:32:02.022Z,96.75
2022-11-26T08:37:03.667Z,96.67
2022-11-26T08:42:05.126Z,97.16
2022-11-26T08:47:06.552Z,97.27
2022-11-26T08:52:07.992Z,97.31
2022-11-26T08:57:09.368Z,96.79
2022-11-26T09:02:15.981Z,97.10
2022-11-26T09:07:19.932Z,96.04
2022-11-26T09:12:23.016Z,96.20
2022-11-26T09:17:26.865Z,96.93
2022-11-26T09:22:28.250Z,97.03
2022-11-26T09:27:29.708Z,96.55
2022-11-26T09:32:34.181Z,96.13
2022-11-26T09:37:36.270Z,95.62
2022-11-26T09:43:08.187Z,96.18
2022-11-26T09:48:16.647Z,95.80
2022-11-26T09:53:28.319Z,95.69
2022-11-26T09:58:49.096Z,94.48
2022-11-26T10:03:51.964Z,94.64
2022-11-26T10:09:14.963Z,95.17
2022-11-26T10:14:53.944Z,95.25
2022-11-26T10:20:16.030Z,94.48
2022-11-26T10:25:20.570Z,94.45
2022-11-26T10:30:25.261Z,94.35
2022-11-26T10:35:29.722Z,93.22
2022-11-26T10:40:32.130Z,92.73
2022-11-26T10:45:54.020Z,92.56
2022-11-26T10:50:55.567Z,93.25
2022-11-26T10:56:04.085Z,92.37
2022-11-26T11:01:06.820Z,91.91
2022-11-26T11:06:33.118Z,92.04
2022-11-26T11:11:34.623Z,91.60
2022-11-26T11:16:46.120Z,91.63
2022-11-26T11:21:48.653Z,91.37
2022-11-26T11:26:55.739Z,90.64
2022-11-26T11:31:57.650Z,90.52
2022-11-26T11:37:06.131Z,90.68
2022-11-26T11:42:22.478Z,90.77
2022-11-26T11:47:47.443Z,90.03
2022-11-26T11:52:51.962Z,89.99
2022-11-26T11:58:18.315Z,89.99
2022-11-26T12:03:26.442Z,90.10
2022-11-26T12:08:54.921Z,90.48
2022-11-26T12:14:20.610Z,90.16
2022-11-26T12:19:29.118Z,90.34
2022-11-26T12:24:46.399Z,90.04
2022-11-26T12:29:55.739Z,90.69
2022-11-26T12:35:04.182Z,90.47
2022-11-26T12:40:41.741Z,89.94
2022-11-26T12:46:04.863Z,90.30
2022-11-26T12:51:18.271Z,90.80
2022-11-26T12:56:41.966Z,90.59
2022-11-26T13:01:43.391Z,90.43
2022-11-26T13:07:08.049Z,89.57
2022-11-26T13:12:42.371Z,89.74
2022-11-26T13:17:46.340Z,89.74
2022-11-26T13:23:33.267Z,89.45
2022-11-26T13:28:43.662Z,89.62
2022-11-26T13:34:03.860Z,88.66
2022-11-26T13:39:13.794Z,89.02
2022-11-26T13:44:49.190Z,89.36
2022-11-26T13:50:07.686Z,89.09
2022-11-26T13:55:17.043Z,89.72
2022-11-26T14:00:27.323Z,89.10
2022-11-26T14:05:48.928Z,89.91
2022-11-26T14:10:50.314Z,89.45
2022-11-26T14:16:01.442Z,88.36
2022-11-26T14:21:03.916Z,89.27
2022-11-26T14:26:06.494Z,89.20
2022-11-26T14:31:25.892Z,88.77
2022-11-26T14:36:29.727Z,88.82
2022-11-26T14:41:43.136Z,88.55
2022-11-26T14:46:48.208Z,89.00
2022-11-26T14:51:53.342Z,89.40
2022-11-26T14:56:58.994Z,89.21
2022-11-26T15:02:00.464Z,89.68
2022-11-26T15:07:01.896Z,89.45
2022-11-26T15:12:11.896Z,89.72
2022-11-26T15:17:17.061Z,90.03
2022-11-26T15:22:44.148Z,90.41
2022-11-26T15:28:01.934Z,90.69
2022-11-26T15:33:12.302Z,91.26
2022-11-26T15:38:16.083Z,91.29
2022-11-26T15:43:42.738Z,90.63
2022-11-26T15:48:53.722Z,90.99
2022-11-26T15:53:55.598Z,90.59
2022-11-26T15:59:00.473Z,90.48
2022-11-26T16:04:06.041Z,89.72
2022-11-26T16:09:13.666Z,89.86
2022-11-26T16:14:32.907Z,90.57
2022-11-26T16:19:34.318Z,90.96
2022-11-26T16:24:43.526Z,90.80
2022-11-26T16:29:45.522Z,90.70
2022-11-26T16:34:46.941Z,90.86
2022-11-26T16:39:50.313Z,90.84
2022-11-26T16:44:51.751Z,90.82
2022-11-26T16:49:53.750Z,91.16
2022-11-26T16:54:55.186Z,91.53
2022-11-26T17:00:05.317Z,90.98
2022-11-26T17:05:07.014Z,91.59
2022-11-26T17:10:18.314Z,91.08
2022-11-26T17:15:19.825Z,91.25
2022-11-26T17:20:26.695Z,91.77
2022-11-26T17:25:29.571Z,92.05
2022-11-26T17:30:31.071Z,91.39
2022-11-26T17:35:32.652Z,92.03
2022-11-26T17:40:34.424Z,91.71
2022-11-26T17:45:36.135Z,91.77
2022-11-26T17:50:37.562Z,91.97
2022-11-26T17:55:39.155Z,92.30
2022-11-26T18:05:56.631Z,92.12
2022-11-26T18:10:58.263Z,91.58
2022-11-26T18:16:00.102Z,91.54
2022-11-26T18:21:01.663Z,90.53
2022-11-26T18:26:03.120Z,90.70
2022-11-26T18:31:04.623Z,90.32
2022-11-26T18:36:06.367Z,90.33
2022-11-26T18:41:08.203Z,90.74
2022-11-26T18:46:17.209Z,90.67
2022-11-26T18:51:18.875Z,90.99
2022-11-26T18:56:24.939Z,91.04
2022-11-26T19:01:39.568Z,90.99
2022-11-26T19:06:45.142Z,91.13
2022-11-26T19:17:21.801Z,91.24
2022-11-26T19:22:23.519Z,91.43
2022-11-26T19:33:25.448Z,91.21
2022-11-26T19:38:47.813Z,91.54
2022-11-26T19:44:21.999Z,91.14
2022-11-26T19:49:23.455Z,91.07
2022-11-26T19:54:28.401Z,90.39
2022-11-26T19:59:30.771Z,90.50
2022-11-26T20:04:32.304Z,90.54
2022-11-26T20:09:33.874Z,90.32
2022-11-26T20:14:35.254Z,90.07
2022-11-26T20:19:37.320Z,89.42
2022-11-26T20:24:38.882Z,89.73
2022-11-26T20:36:24.391Z,89.33
2022-11-26T20:49:40.047Z,88.49
2022-11-26T20:54:53.658Z,88.89
2022-11-26T21:00:24.803Z,88.43
2022-11-26T21:12:20.471Z,88.50
2022-11-26T21:23:34.147Z,88.39
2022-11-26T21:28:36.798Z,88.91
2022-11-26T21:40:08.986Z,90.74
2022-11-26T21:57:26.682Z,91.19
2022-11-26T22:02:40.451Z,91.35
2022-11-26T22:21:02.348Z,91.50
2022-11-26T22:26:04.007Z,91.67
2022-11-26T22:31:14.871Z,90.32
2022-11-26T22:36:16.451Z,90.91
2022-11-26T22:41:18.002Z,91.24
2022-11-26T22:46:21.929Z,91.34
2022-11-26T22:51:24.837Z,91.40
2022-11-26T22:56:28.233Z,91.32
2022-11-26T23:01:31.796Z,91.83
2022-11-26T23:06:34.716Z,91.39
2022-11-26T23:11:38.892Z,91.33
2022-11-26T23:16:42.657Z,91.35
2022-11-26T23:21:46.479Z,92.40
2022-11-26T23:26:47.911Z,92.17
2022-11-26T23:31:50.477Z,92.43
2022-11-26T23:36:51.878Z,92.33
2022-11-26T23:41:53.247Z,92.22
2022-11-26T23:46:54.654Z,92.59
2022-11-26T23:51:56.027Z,92.17
2022-11-26T23:56:57.427Z,92.49
